sensor_id;sensor_type;location;lat;lon;timestamp;P1;durP1;ratioP1;P2;durP2;ratioP2
61471;SDS011;47337;54.068;12.114;2024-02-16T00:00:43;11.52;;;6.57;;
61471;SDS011;47337;54.068;12.114;2024-02-16T00:03:09;11.40;;;6.68;;
61471;SDS011;47337;54.068;12.114;2024-02-16T00:05:34;11.40;;;6.20;;
61471;SDS011;47337;54.068;12.114;2024-02-16T00:08:00;9.55;;;6.50;;
61471;SDS011;47337;54.068;12.114;2024-02-16T00:10:27;13.73;;;6.43;;
61471;SDS011;47337;54.068;12.114;2024-02-16T00:12:55;10.00;;;6.53;;
61471;SDS011;47337;54.068;12.114;2024-02-16T00:15:21;10.70;;;6.47;;
61471;SDS011;47337;54.068;12.114;2024-02-16T00:17:47;14.23;;;7.82;;
61471;SDS011;47337;54.068;12.114;2024-02-16T00:20:12;11.50;;;6.78;;
61471;SDS011;47337;54.068;12.114;2024-02-16T00:22:37;13.57;;;7.13;;
61471;SDS011;47337;54.068;12.114;2024-02-16T00:25:03;12.48;;;6.15;;
61471;SDS011;47337;54.068;12.114;2024-02-16T00:27:28;12.77;;;7.38;;
61471;SDS011;47337;54.068;12.114;2024-02-16T00:29:53;13.68;;;6.30;;
61471;SDS011;47337;54.068;12.114;2024-02-16T00:32:19;15.45;;;6.93;;
61471;SDS011;47337;54.068;12.114;2024-02-16T00:34:44;11.32;;;5.97;;
61471;SDS011;47337;54.068;12.114;2024-02-16T00:37:10;12.73;;;5.90;;
61471;SDS011;47337;54.068;12.114;2024-02-16T00:39:37;11.75;;;5.70;;
61471;SDS011;47337;54.068;12.114;2024-02-16T00:42:02;9.48;;;5.47;;
61471;SDS011;47337;54.068;12.114;2024-02-16T00:44:27;11.73;;;6.03;;
61471;SDS011;47337;54.068;12.114;2024-02-16T00:46:53;10.18;;;5.75;;
61471;SDS011;47337;54.068;12.114;2024-02-16T00:49:18;9.07;;;5.72;;
61471;SDS011;47337;54.068;12.114;2024-02-16T00:51:43;12.48;;;6.15;;
61471;SDS011;47337;54.068;12.114;2024-02-16T00:54:08;10.50;;;5.68;;
61471;SDS011;47337;54.068;12.114;2024-02-16T00:56:34;10.10;;;6.00;;
61471;SDS011;47337;54.068;12.114;2024-02-16T00:58:59;9.20;;;5.88;;
61471;SDS011;47337;54.068;12.114;2024-02-16T01:01:27;9.80;;;5.40;;
61471;SDS011;47337;54.068;12.114;2024-02-16T01:03:52;9.50;;;6.40;;
61471;SDS011;47337;54.068;12.114;2024-02-16T01:06:18;9.60;;;5.82;;
61471;SDS011;47337;54.068;12.114;2024-02-16T01:08:43;11.48;;;5.93;;
61471;SDS011;47337;54.068;12.114;2024-02-16T01:11:08;11.27;;;6.93;;
61471;SDS011;47337;54.068;12.114;2024-02-16T01:13:34;10.40;;;5.60;;
61471;SDS011;47337;54.068;12.114;2024-02-16T01:15:59;10.32;;;5.70;;
61471;SDS011;47337;54.068;12.114;2024-02-16T01:18:25;10.52;;;5.72;;
61471;SDS011;47337;54.068;12.114;2024-02-16T01:20:51;10.27;;;5.55;;
61471;SDS011;47337;54.068;12.114;2024-02-16T01:23:16;9.63;;;6.32;;
61471;SDS011;47337;54.068;12.114;2024-02-16T01:25:41;9.23;;;6.32;;
61471;SDS011;47337;54.068;12.114;2024-02-16T01:28:07;11.57;;;6.00;;
61471;SDS011;47337;54.068;12.114;2024-02-16T01:30:32;9.40;;;5.80;;
61471;SDS011;47337;54.068;12.114;2024-02-16T01:32:57;11.75;;;5.93;;
61471;SDS011;47337;54.068;12.114;2024-02-16T01:35:23;11.38;;;6.80;;
61471;SDS011;47337;54.068;12.114;2024-02-16T01:37:48;11.98;;;6.75;;
61471;SDS011;47337;54.068;12.114;2024-02-16T01:40:16;10.40;;;6.05;;
61471;SDS011;47337;54.068;12.114;2024-02-16T01:42:48;15.38;;;6.93;;
61471;SDS011;47337;54.068;12.114;2024-02-16T01:45:14;11.65;;;6.53;;
61471;SDS011;47337;54.068;12.114;2024-02-16T01:47:41;10.30;;;6.60;;
61471;SDS011;47337;54.068;12.114;2024-02-16T01:50:07;14.80;;;6.97;;
61471;SDS011;47337;54.068;12.114;2024-02-16T01:52:33;14.70;;;7.00;;
61471;SDS011;47337;54.068;12.114;2024-02-16T01:55:01;10.30;;;6.15;;
61471;SDS011;47337;54.068;12.114;2024-02-16T01:57:28;11.98;;;7.10;;
61471;SDS011;47337;54.068;12.114;2024-02-16T01:59:54;9.90;;;6.45;;
61471;SDS011;47337;54.068;12.114;2024-02-16T02:02:19;10.52;;;6.63;;
61471;SDS011;47337;54.068;12.114;2024-02-16T02:04:47;11.93;;;6.80;;
61471;SDS011;47337;54.068;12.114;2024-02-16T02:07:15;11.10;;;6.13;;
61471;SDS011;47337;54.068;12.114;2024-02-16T02:09:40;13.13;;;7.47;;
61471;SDS011;47337;54.068;12.114;2024-02-16T02:12:08;10.60;;;5.90;;
61471;SDS011;47337;54.068;12.114;2024-02-16T02:14:34;14.32;;;6.45;;
61471;SDS011;47337;54.068;12.114;2024-02-16T02:16:59;10.55;;;6.85;;
61471;SDS011;47337;54.068;12.114;2024-02-16T02:19:25;10.13;;;5.50;;
61471;SDS011;47337;54.068;12.114;2024-02-16T02:21:50;10.95;;;6.57;;
61471;SDS011;47337;54.068;12.114;2024-02-16T02:24:16;12.88;;;6.50;;
61471;SDS011;47337;54.068;12.114;2024-02-16T02:26:41;14.27;;;6.55;;
61471;SDS011;47337;54.068;12.114;2024-02-16T02:29:07;13.82;;;6.10;;
61471;SDS011;47337;54.068;12.114;2024-02-16T02:31:32;12.60;;;6.40;;
61471;SDS011;47337;54.068;12.114;2024-02-16T02:33:57;11.45;;;6.38;;
61471;SDS011;47337;54.068;12.114;2024-02-16T02:36:22;8.95;;;6.25;;
61471;SDS011;47337;54.068;12.114;2024-02-16T02:38:48;9.77;;;5.75;;
61471;SDS011;47337;54.068;12.114;2024-02-16T02:41:13;9.48;;;6.03;;
61471;SDS011;47337;54.068;12.114;2024-02-16T02:43:43;13.93;;;6.13;;
61471;SDS011;47337;54.068;12.114;2024-02-16T02:46:09;13.88;;;6.90;;
61471;SDS011;47337;54.068;12.114;2024-02-16T02:48:34;8.48;;;5.40;;
61471;SDS011;47337;54.068;12.114;2024-02-16T02:50:59;13.85;;;6.00;;
61471;SDS011;47337;54.068;12.114;2024-02-16T02:53:27;9.52;;;5.68;;
61471;SDS011;47337;54.068;12.114;2024-02-16T02:55:52;16.63;;;5.63;;
61471;SDS011;47337;54.068;12.114;2024-02-16T02:58:18;10.70;;;5.95;;
61471;SDS011;47337;54.068;12.114;2024-02-16T03:00:45;14.38;;;5.95;;
61471;SDS011;47337;54.068;12.114;2024-02-16T03:03:11;12.82;;;6.22;;
61471;SDS011;47337;54.068;12.114;2024-02-16T03:05:36;10.18;;;5.78;;
61471;SDS011;47337;54.068;12.114;2024-02-16T03:08:03;9.32;;;5.30;;
61471;SDS011;47337;54.068;12.114;2024-02-16T03:10:29;10.82;;;5.65;;
61471;SDS011;47337;54.068;12.114;2024-02-16T03:13:00;11.52;;;6.63;;
61471;SDS011;47337;54.068;12.114;2024-02-16T03:15:25;9.77;;;5.72;;
61471;SDS011;47337;54.068;12.114;2024-02-16T03:17:50;9.85;;;6.28;;
61471;SDS011;47337;54.068;12.114;2024-02-16T03:20:15;11.07;;;6.05;;
61471;SDS011;47337;54.068;12.114;2024-02-16T03:22:41;10.25;;;5.53;;
61471;SDS011;47337;54.068;12.114;2024-02-16T03:25:07;14.73;;;6.55;;
61471;SDS011;47337;54.068;12.114;2024-02-16T03:27:32;9.93;;;6.00;;
61471;SDS011;47337;54.068;12.114;2024-02-16T03:30:00;11.13;;;5.70;;
61471;SDS011;47337;54.068;12.114;2024-02-16T03:32:27;9.70;;;5.15;;
61471;SDS011;47337;54.068;12.114;2024-02-16T03:34:56;10.60;;;5.43;;
61471;SDS011;47337;54.068;12.114;2024-02-16T03:37:21;9.48;;;5.85;;
61471;SDS011;47337;54.068;12.114;2024-02-16T03:39:46;8.35;;;5.35;;
61471;SDS011;47337;54.068;12.114;2024-02-16T03:42:12;8.32;;;5.53;;
61471;SDS011;47337;54.068;12.114;2024-02-16T03:44:37;10.27;;;5.95;;
61471;SDS011;47337;54.068;12.114;2024-02-16T03:47:02;9.95;;;5.90;;
61471;SDS011;47337;54.068;12.114;2024-02-16T03:49:28;7.88;;;5.25;;
61471;SDS011;47337;54.068;12.114;2024-02-16T03:51:55;8.75;;;5.47;;
61471;SDS011;47337;54.068;12.114;2024-02-16T03:54:21;11.95;;;5.55;;
61471;SDS011;47337;54.068;12.114;2024-02-16T03:56:46;7.78;;;5.10;;
61471;SDS011;47337;54.068;12.114;2024-02-16T03:59:11;6.63;;;4.50;;
61471;SDS011;47337;54.068;12.114;2024-02-16T04:01:37;9.20;;;4.68;;
61471;SDS011;47337;54.068;12.114;2024-02-16T04:04:02;8.02;;;5.63;;
61471;SDS011;47337;54.068;12.114;2024-02-16T04:06:28;7.28;;;4.88;;
61471;SDS011;47337;54.068;12.114;2024-02-16T04:08:53;11.73;;;5.38;;
61471;SDS011;47337;54.068;12.114;2024-02-16T04:11:19;6.00;;;4.50;;
61471;SDS011;47337;54.068;12.114;2024-02-16T04:13:44;7.20;;;5.13;;
61471;SDS011;47337;54.068;12.114;2024-02-16T04:16:09;10.52;;;5.60;;
61471;SDS011;47337;54.068;12.114;2024-02-16T04:18:34;7.82;;;5.05;;
61471;SDS011;47337;54.068;12.114;2024-02-16T04:21:00;7.13;;;5.38;;
61471;SDS011;47337;54.068;12.114;2024-02-16T04:23:25;9.20;;;5.72;;
61471;SDS011;47337;54.068;12.114;2024-02-16T04:25:50;10.00;;;6.25;;
61471;SDS011;47337;54.068;12.114;2024-02-16T04:28:15;10.20;;;6.13;;
61471;SDS011;47337;54.068;12.114;2024-02-16T04:30:43;10.20;;;5.35;;
61471;SDS011;47337;54.068;12.114;2024-02-16T04:33:11;9.48;;;5.47;;
61471;SDS011;47337;54.068;12.114;2024-02-16T04:35:36;13.98;;;5.82;;
61471;SDS011;47337;54.068;12.114;2024-02-16T04:38:02;9.63;;;6.65;;
61471;SDS011;47337;54.068;12.114;2024-02-16T04:40:27;8.98;;;5.80;;
61471;SDS011;47337;54.068;12.114;2024-02-16T04:42:52;8.70;;;5.75;;
61471;SDS011;47337;54.068;12.114;2024-02-16T04:45:17;10.45;;;5.70;;
61471;SDS011;47337;54.068;12.114;2024-02-16T04:47:43;13.20;;;7.30;;
61471;SDS011;47337;54.068;12.114;2024-02-16T04:50:08;11.20;;;6.45;;
61471;SDS011;47337;54.068;12.114;2024-02-16T04:52:37;11.40;;;6.32;;
61471;SDS011;47337;54.068;12.114;2024-02-16T04:55:03;8.77;;;5.88;;
61471;SDS011;47337;54.068;12.114;2024-02-16T04:57:31;10.00;;;5.80;;
61471;SDS011;47337;54.068;12.114;2024-02-16T04:59:56;8.30;;;5.68;;
61471;SDS011;47337;54.068;12.114;2024-02-16T05:02:21;8.65;;;5.68;;
61471;SDS011;47337;54.068;12.114;2024-02-16T05:04:47;10.52;;;6.00;;
61471;SDS011;47337;54.068;12.114;2024-02-16T05:07:12;11.23;;;5.88;;
61471;SDS011;47337;54.068;12.114;2024-02-16T05:09:37;7.70;;;5.80;;
61471;SDS011;47337;54.068;12.114;2024-02-16T05:12:04;12.30;;;6.25;;
61471;SDS011;47337;54.068;12.114;2024-02-16T05:14:30;13.05;;;5.82;;
61471;SDS011;47337;54.068;12.114;2024-02-16T05:16:55;8.07;;;5.72;;
61471;SDS011;47337;54.068;12.114;2024-02-16T05:19:20;8.68;;;5.53;;
61471;SDS011;47337;54.068;12.114;2024-02-16T05:21:45;8.93;;;5.55;;
61471;SDS011;47337;54.068;12.114;2024-02-16T05:24:11;10.90;;;5.93;;
61471;SDS011;47337;54.068;12.114;2024-02-16T05:26:38;9.52;;;5.13;;
61471;SDS011;47337;54.068;12.114;2024-02-16T05:29:03;10.68;;;5.30;;
61471;SDS011;47337;54.068;12.114;2024-02-16T05:31:31;9.77;;;4.80;;
61471;SDS011;47337;54.068;12.114;2024-02-16T05:33:56;8.65;;;4.85;;
61471;SDS011;47337;54.068;12.114;2024-02-16T05:36:22;8.68;;;5.03;;
61471;SDS011;47337;54.068;12.114;2024-02-16T05:38:52;16.00;;;5.63;;
61471;SDS011;47337;54.068;12.114;2024-02-16T05:41:19;8.25;;;5.07;;
61471;SDS011;47337;54.068;12.114;2024-02-16T05:43:45;8.80;;;5.30;;
61471;SDS011;47337;54.068;12.114;2024-02-16T05:46:13;9.15;;;5.50;;
61471;SDS011;47337;54.068;12.114;2024-02-16T05:48:41;6.70;;;4.25;;
61471;SDS011;47337;54.068;12.114;2024-02-16T05:51:06;8.93;;;5.10;;
61471;SDS011;47337;54.068;12.114;2024-02-16T05:53:32;7.72;;;5.25;;
61471;SDS011;47337;54.068;12.114;2024-02-16T05:55:58;10.77;;;4.60;;
61471;SDS011;47337;54.068;12.114;2024-02-16T05:58:23;8.30;;;5.22;;
61471;SDS011;47337;54.068;12.114;2024-02-16T06:00:48;11.10;;;5.20;;
61471;SDS011;47337;54.068;12.114;2024-02-16T06:03:14;7.63;;;4.75;;
61471;SDS011;47337;54.068;12.114;2024-02-16T06:05:39;6.03;;;4.50;;
61471;SDS011;47337;54.068;12.114;2024-02-16T06:08:06;9.48;;;5.18;;
61471;SDS011;47337;54.068;12.114;2024-02-16T06:10:32;10.38;;;5.50;;
61471;SDS011;47337;54.068;12.114;2024-02-16T06:12:57;6.82;;;4.80;;
61471;SDS011;47337;54.068;12.114;2024-02-16T06:15:22;6.97;;;4.97;;
61471;SDS011;47337;54.068;12.114;2024-02-16T06:17:48;8.07;;;4.90;;
61471;SDS011;47337;54.068;12.114;2024-02-16T06:20:13;10.68;;;6.05;;
61471;SDS011;47337;54.068;12.114;2024-02-16T06:22:39;9.98;;;5.13;;
61471;SDS011;47337;54.068;12.114;2024-02-16T06:25:04;11.30;;;5.28;;
61471;SDS011;47337;54.068;12.114;2024-02-16T06:27:30;9.23;;;4.78;;
61471;SDS011;47337;54.068;12.114;2024-02-16T06:29:58;9.10;;;5.35;;
61471;SDS011;47337;54.068;12.114;2024-02-16T06:32:24;8.02;;;4.88;;
61471;SDS011;47337;54.068;12.114;2024-02-16T06:34:49;8.13;;;5.15;;
61471;SDS011;47337;54.068;12.114;2024-02-16T06:37:14;7.28;;;5.28;;
61471;SDS011;47337;54.068;12.114;2024-02-16T06:39:40;8.50;;;5.05;;
61471;SDS011;47337;54.068;12.114;2024-02-16T06:42:05;8.13;;;4.85;;
61471;SDS011;47337;54.068;12.114;2024-02-16T06:44:30;9.85;;;5.75;;
61471;SDS011;47337;54.068;12.114;2024-02-16T06:46:56;10.90;;;5.70;;
61471;SDS011;47337;54.068;12.114;2024-02-16T06:49:21;9.18;;;5.45;;
61471;SDS011;47337;54.068;12.114;2024-02-16T06:51:46;8.95;;;4.82;;
61471;SDS011;47337;54.068;12.114;2024-02-16T06:54:11;10.55;;;5.55;;
61471;SDS011;47337;54.068;12.114;2024-02-16T06:56:37;10.48;;;5.35;;
61471;SDS011;47337;54.068;12.114;2024-02-16T06:59:03;8.55;;;5.18;;
61471;SDS011;47337;54.068;12.114;2024-02-16T07:01:28;10.40;;;4.80;;
61471;SDS011;47337;54.068;12.114;2024-02-16T07:03:54;8.35;;;5.20;;
61471;SDS011;47337;54.068;12.114;2024-02-16T07:06:19;8.13;;;5.40;;
61471;SDS011;47337;54.068;12.114;2024-02-16T07:08:44;7.18;;;5.00;;
61471;SDS011;47337;54.068;12.114;2024-02-16T07:11:10;7.30;;;4.80;;
61471;SDS011;47337;54.068;12.114;2024-02-16T07:13:38;6.10;;;4.75;;
61471;SDS011;47337;54.068;12.114;2024-02-16T07:16:04;10.30;;;4.82;;
61471;SDS011;47337;54.068;12.114;2024-02-16T07:18:31;9.63;;;5.15;;
61471;SDS011;47337;54.068;12.114;2024-02-16T07:20:57;7.40;;;5.03;;
61471;SDS011;47337;54.068;12.114;2024-02-16T07:23:24;6.40;;;4.90;;
61471;SDS011;47337;54.068;12.114;2024-02-16T07:25:49;10.55;;;5.10;;
61471;SDS011;47337;54.068;12.114;2024-02-16T07:28:14;7.68;;;4.47;;
61471;SDS011;47337;54.068;12.114;2024-02-16T07:30:43;6.35;;;4.93;;
61471;SDS011;47337;54.068;12.114;2024-02-16T07:33:08;7.75;;;4.93;;
61471;SDS011;47337;54.068;12.114;2024-02-16T07:35:33;6.57;;;5.32;;
61471;SDS011;47337;54.068;12.114;2024-02-16T07:38:00;7.68;;;5.13;;
61471;SDS011;47337;54.068;12.114;2024-02-16T07:40:25;11.30;;;4.72;;
61471;SDS011;47337;54.068;12.114;2024-02-16T07:42:51;10.18;;;4.90;;
61471;SDS011;47337;54.068;12.114;2024-02-16T07:45:16;6.63;;;4.07;;
61471;SDS011;47337;54.068;12.114;2024-02-16T07:47:41;7.57;;;4.80;;
61471;SDS011;47337;54.068;12.114;2024-02-16T07:50:07;7.10;;;4.20;;
61471;SDS011;47337;54.068;12.114;2024-02-16T07:52:37;7.95;;;4.47;;
61471;SDS011;47337;54.068;12.114;2024-02-16T07:55:03;6.32;;;4.20;;
61471;SDS011;47337;54.068;12.114;2024-02-16T07:57:28;12.00;;;4.72;;
61471;SDS011;47337;54.068;12.114;2024-02-16T07:59:54;8.15;;;4.60;;
61471;SDS011;47337;54.068;12.114;2024-02-16T08:02:19;5.50;;;3.97;;
61471;SDS011;47337;54.068;12.114;2024-02-16T08:04:48;6.55;;;4.40;;
61471;SDS011;47337;54.068;12.114;2024-02-16T08:07:13;5.88;;;4.47;;
61471;SDS011;47337;54.068;12.114;2024-02-16T08:09:38;8.45;;;3.67;;
61471;SDS011;47337;54.068;12.114;2024-02-16T08:12:04;6.88;;;4.38;;
61471;SDS011;47337;54.068;12.114;2024-02-16T08:14:35;7.53;;;3.92;;
61471;SDS011;47337;54.068;12.114;2024-02-16T08:17:00;7.53;;;4.22;;
61471;SDS011;47337;54.068;12.114;2024-02-16T08:19:31;6.57;;;4.05;;
61471;SDS011;47337;54.068;12.114;2024-02-16T08:21:56;7.38;;;4.50;;
61471;SDS011;47337;54.068;12.114;2024-02-16T08:24:22;7.70;;;3.90;;
61471;SDS011;47337;54.068;12.114;2024-02-16T08:26:47;6.53;;;4.25;;
61471;SDS011;47337;54.068;12.114;2024-02-16T08:29:12;6.60;;;4.50;;
61471;SDS011;47337;54.068;12.114;2024-02-16T08:31:37;4.95;;;3.75;;
61471;SDS011;47337;54.068;12.114;2024-02-16T08:34:03;6.03;;;4.45;;
61471;SDS011;47337;54.068;12.114;2024-02-16T08:36:32;8.13;;;4.20;;
61471;SDS011;47337;54.068;12.114;2024-02-16T08:38:57;9.55;;;4.22;;
61471;SDS011;47337;54.068;12.114;2024-02-16T08:41:22;9.25;;;4.20;;
61471;SDS011;47337;54.068;12.114;2024-02-16T08:43:50;5.35;;;3.83;;
61471;SDS011;47337;54.068;12.114;2024-02-16T08:46:16;4.30;;;3.78;;
61471;SDS011;47337;54.068;12.114;2024-02-16T08:48:41;4.32;;;3.90;;
61471;SDS011;47337;54.068;12.114;2024-02-16T08:51:06;6.28;;;3.53;;
61471;SDS011;47337;54.068;12.114;2024-02-16T08:53:34;6.40;;;3.70;;
61471;SDS011;47337;54.068;12.114;2024-02-16T08:55:59;5.47;;;3.83;;
61471;SDS011;47337;54.068;12.114;2024-02-16T08:58:25;5.50;;;4.25;;
61471;SDS011;47337;54.068;12.114;2024-02-16T09:00:50;6.18;;;3.67;;
61471;SDS011;47337;54.068;12.114;2024-02-16T09:03:15;5.68;;;3.80;;
61471;SDS011;47337;54.068;12.114;2024-02-16T09:05:41;8.00;;;3.83;;
61471;SDS011;47337;54.068;12.114;2024-02-16T09:08:08;6.85;;;3.97;;
61471;SDS011;47337;54.068;12.114;2024-02-16T09:10:34;4.95;;;3.70;;
61471;SDS011;47337;54.068;12.114;2024-02-16T09:13:02;7.38;;;3.60;;
61471;SDS011;47337;54.068;12.114;2024-02-16T09:15:27;4.15;;;3.33;;
61471;SDS011;47337;54.068;12.114;2024-02-16T09:17:52;4.45;;;3.28;;
61471;SDS011;47337;54.068;12.114;2024-02-16T09:20:18;5.65;;;4.05;;
61471;SDS011;47337;54.068;12.114;2024-02-16T09:22:47;5.90;;;3.58;;
61471;SDS011;47337;54.068;12.114;2024-02-16T09:25:12;5.45;;;3.33;;
61471;SDS011;47337;54.068;12.114;2024-02-16T09:27:39;6.32;;;3.28;;
61471;SDS011;47337;54.068;12.114;2024-02-16T09:30:07;5.70;;;3.40;;
61471;SDS011;47337;54.068;12.114;2024-02-16T09:32:36;6.13;;;3.20;;
61471;SDS011;47337;54.068;12.114;2024-02-16T09:35:01;4.10;;;3.25;;
61471;SDS011;47337;54.068;12.114;2024-02-16T09:37:26;4.38;;;3.22;;
61471;SDS011;47337;54.068;12.114;2024-02-16T09:39:51;6.20;;;3.50;;
61471;SDS011;47337;54.068;12.114;2024-02-16T09:42:17;6.15;;;3.60;;
61471;SDS011;47337;54.068;12.114;2024-02-16T09:44:43;4.55;;;3.17;;
61471;SDS011;47337;54.068;12.114;2024-02-16T09:47:09;5.13;;;3.33;;
61471;SDS011;47337;54.068;12.114;2024-02-16T09:49:37;4.63;;;3.63;;
61471;SDS011;47337;54.068;12.114;2024-02-16T09:52:02;4.10;;;3.35;;
61471;SDS011;47337;54.068;12.114;2024-02-16T09:54:33;4.95;;;3.70;;
61471;SDS011;47337;54.068;12.114;2024-02-16T09:57:03;4.70;;;3.30;;
61471;SDS011;47337;54.068;12.114;2024-02-16T09:59:31;4.95;;;3.38;;
61471;SDS011;47337;54.068;12.114;2024-02-16T10:02:01;6.93;;;3.40;;
61471;SDS011;47337;54.068;12.114;2024-02-16T10:04:26;4.93;;;3.30;;
61471;SDS011;47337;54.068;12.114;2024-02-16T10:06:51;4.00;;;3.00;;
61471;SDS011;47337;54.068;12.114;2024-02-16T10:09:24;6.40;;;3.60;;
61471;SDS011;47337;54.068;12.114;2024-02-16T10:11:50;5.43;;;3.60;;
61471;SDS011;47337;54.068;12.114;2024-02-16T10:14:16;4.50;;;3.17;;
61471;SDS011;47337;54.068;12.114;2024-02-16T10:16:42;5.85;;;3.10;;
61471;SDS011;47337;54.068;12.114;2024-02-16T10:19:07;3.08;;;2.67;;
61471;SDS011;47337;54.068;12.114;2024-02-16T10:21:35;4.05;;;2.80;;
61471;SDS011;47337;54.068;12.114;2024-02-16T10:24:01;5.03;;;3.17;;
61471;SDS011;47337;54.068;12.114;2024-02-16T10:26:30;3.78;;;2.80;;
61471;SDS011;47337;54.068;12.114;2024-02-16T10:28:56;4.07;;;2.95;;
61471;SDS011;47337;54.068;12.114;2024-02-16T10:31:22;3.63;;;2.80;;
61471;SDS011;47337;54.068;12.114;2024-02-16T10:33:54;5.57;;;3.15;;
61471;SDS011;47337;54.068;12.114;2024-02-16T10:36:19;5.35;;;3.10;;
61471;SDS011;47337;54.068;12.114;2024-02-16T10:38:45;5.00;;;3.05;;
61471;SDS011;47337;54.068;12.114;2024-02-16T10:41:11;4.35;;;2.80;;
61471;SDS011;47337;54.068;12.114;2024-02-16T10:43:36;3.92;;;2.83;;
61471;SDS011;47337;54.068;12.114;2024-02-16T10:46:04;4.57;;;2.88;;
61471;SDS011;47337;54.068;12.114;2024-02-16T10:48:29;3.03;;;2.65;;
61471;SDS011;47337;54.068;12.114;2024-02-16T10:50:55;4.35;;;2.58;;
61471;SDS011;47337;54.068;12.114;2024-02-16T10:53:28;4.55;;;2.85;;
61471;SDS011;47337;54.068;12.114;2024-02-16T10:55:58;3.78;;;2.92;;
61471;SDS011;47337;54.068;12.114;2024-02-16T10:58:24;3.83;;;2.88;;
61471;SDS011;47337;54.068;12.114;2024-02-16T11:00:51;4.15;;;2.70;;
61471;SDS011;47337;54.068;12.114;2024-02-16T11:03:16;4.07;;;2.40;;
61471;SDS011;47337;54.068;12.114;2024-02-16T11:05:42;4.38;;;2.40;;
61471;SDS011;47337;54.068;12.114;2024-02-16T11:08:14;3.17;;;2.20;;
61471;SDS011;47337;54.068;12.114;2024-02-16T11:10:40;2.95;;;2.28;;
61471;SDS011;47337;54.068;12.114;2024-02-16T11:13:05;3.35;;;2.03;;
61471;SDS011;47337;54.068;12.114;2024-02-16T11:15:31;2.72;;;2.00;;
61471;SDS011;47337;54.068;12.114;2024-02-16T11:17:57;2.97;;;1.92;;
61471;SDS011;47337;54.068;12.114;2024-02-16T11:20:24;3.53;;;2.05;;
61471;SDS011;47337;54.068;12.114;2024-02-16T11:22:50;2.55;;;2.00;;
61471;SDS011;47337;54.068;12.114;2024-02-16T11:25:16;3.58;;;2.05;;
61471;SDS011;47337;54.068;12.114;2024-02-16T11:27:41;2.78;;;1.95;;
61471;SDS011;47337;54.068;12.114;2024-02-16T11:30:06;5.40;;;2.17;;
61471;SDS011;47337;54.068;12.114;2024-02-16T11:32:35;5.65;;;2.13;;
61471;SDS011;47337;54.068;12.114;2024-02-16T11:35:06;2.30;;;2.05;;
61471;SDS011;47337;54.068;12.114;2024-02-16T11:37:32;2.25;;;1.77;;
61471;SDS011;47337;54.068;12.114;2024-02-16T11:39:58;6.10;;;2.03;;
61471;SDS011;47337;54.068;12.114;2024-02-16T11:42:23;3.70;;;1.92;;
61471;SDS011;47337;54.068;12.114;2024-02-16T11:44:54;4.10;;;1.70;;
61471;SDS011;47337;54.068;12.114;2024-02-16T11:47:21;2.45;;;1.77;;
61471;SDS011;47337;54.068;12.114;2024-02-16T11:49:59;4.85;;;1.77;;
61471;SDS011;47337;54.068;12.114;2024-02-16T11:52:24;4.43;;;1.98;;
61471;SDS011;47337;54.068;12.114;2024-02-16T11:54:49;3.75;;;1.67;;
61471;SDS011;47337;54.068;12.114;2024-02-16T11:57:15;4.00;;;1.83;;
61471;SDS011;47337;54.068;12.114;2024-02-16T11:59:40;2.25;;;1.52;;
61471;SDS011;47337;54.068;12.114;2024-02-16T12:02:05;2.53;;;1.55;;
61471;SDS011;47337;54.068;12.114;2024-02-16T12:04:31;3.03;;;1.60;;
61471;SDS011;47337;54.068;12.114;2024-02-16T12:06:57;8.40;;;1.85;;
61471;SDS011;47337;54.068;12.114;2024-02-16T12:09:25;5.20;;;1.67;;
61471;SDS011;47337;54.068;12.114;2024-02-16T12:11:50;4.43;;;1.60;;
61471;SDS011;47337;54.068;12.114;2024-02-16T12:14:17;3.65;;;1.67;;
61471;SDS011;47337;54.068;12.114;2024-02-16T12:16:46;2.90;;;1.92;;
61471;SDS011;47337;54.068;12.114;2024-02-16T12:19:14;3.00;;;2.00;;
61471;SDS011;47337;54.068;12.114;2024-02-16T12:21:39;3.28;;;1.60;;
61471;SDS011;47337;54.068;12.114;2024-02-16T12:24:05;2.40;;;1.90;;
61471;SDS011;47337;54.068;12.114;2024-02-16T12:26:30;4.18;;;2.00;;
61471;SDS011;47337;54.068;12.114;2024-02-16T12:28:55;5.70;;;2.45;;
61471;SDS011;47337;54.068;12.114;2024-02-16T12:31:21;2.13;;;1.58;;
61471;SDS011;47337;54.068;12.114;2024-02-16T12:33:46;4.38;;;2.00;;
61471;SDS011;47337;54.068;12.114;2024-02-16T12:36:12;3.28;;;1.55;;
61471;SDS011;47337;54.068;12.114;2024-02-16T12:38:37;3.75;;;2.05;;
61471;SDS011;47337;54.068;12.114;2024-02-16T12:41:02;2.65;;;1.70;;
61471;SDS011;47337;54.068;12.114;2024-02-16T12:43:28;3.83;;;2.00;;
61471;SDS011;47337;54.068;12.114;2024-02-16T12:45:53;5.20;;;1.98;;
61471;SDS011;47337;54.068;12.114;2024-02-16T12:48:19;2.72;;;1.55;;
61471;SDS011;47337;54.068;12.114;2024-02-16T12:50:45;2.70;;;1.70;;
61471;SDS011;47337;54.068;12.114;2024-02-16T12:53:14;2.40;;;1.52;;
61471;SDS011;47337;54.068;12.114;2024-02-16T12:55:42;2.88;;;1.67;;
61471;SDS011;47337;54.068;12.114;2024-02-16T12:58:08;3.45;;;1.67;;
61471;SDS011;47337;54.068;12.114;2024-02-16T13:00:33;2.38;;;1.60;;
61471;SDS011;47337;54.068;12.114;2024-02-16T13:03:01;3.20;;;1.70;;
61471;SDS011;47337;54.068;12.114;2024-02-16T13:05:26;3.75;;;1.80;;
61471;SDS011;47337;54.068;12.114;2024-02-16T13:07:55;3.80;;;1.92;;
61471;SDS011;47337;54.068;12.114;2024-02-16T13:10:20;2.65;;;1.70;;
61471;SDS011;47337;54.068;12.114;2024-02-16T13:12:46;3.08;;;2.10;;
61471;SDS011;47337;54.068;12.114;2024-02-16T13:15:11;3.28;;;2.05;;
61471;SDS011;47337;54.068;12.114;2024-02-16T13:17:37;3.45;;;1.90;;
61471;SDS011;47337;54.068;12.114;2024-02-16T13:20:02;5.25;;;2.08;;
61471;SDS011;47337;54.068;12.114;2024-02-16T13:22:37;2.38;;;2.15;;
61471;SDS011;47337;54.068;12.114;2024-02-16T13:25:03;4.55;;;1.90;;
61471;SDS011;47337;54.068;12.114;2024-02-16T13:27:31;4.88;;;2.25;;
61471;SDS011;47337;54.068;12.114;2024-02-16T13:29:57;2.88;;;1.88;;
61471;SDS011;47337;54.068;12.114;2024-02-16T13:32:22;2.75;;;1.98;;
61471;SDS011;47337;54.068;12.114;2024-02-16T13:34:47;3.70;;;1.90;;
61471;SDS011;47337;54.068;12.114;2024-02-16T13:37:13;2.75;;;2.30;;
61471;SDS011;47337;54.068;12.114;2024-02-16T13:39:38;4.38;;;2.30;;
61471;SDS011;47337;54.068;12.114;2024-02-16T13:42:04;2.78;;;2.00;;
61471;SDS011;47337;54.068;12.114;2024-02-16T13:44:31;4.55;;;1.95;;
61471;SDS011;47337;54.068;12.114;2024-02-16T13:46:57;3.55;;;1.92;;
61471;SDS011;47337;54.068;12.114;2024-02-16T13:49:22;3.63;;;1.77;;
61471;SDS011;47337;54.068;12.114;2024-02-16T13:51:47;2.42;;;2.05;;
61471;SDS011;47337;54.068;12.114;2024-02-16T13:54:15;3.17;;;1.77;;
61471;SDS011;47337;54.068;12.114;2024-02-16T13:56:40;3.03;;;1.90;;
61471;SDS011;47337;54.068;12.114;2024-02-16T13:59:06;3.28;;;1.90;;
61471;SDS011;47337;54.068;12.114;2024-02-16T14:01:32;2.45;;;1.75;;
61471;SDS011;47337;54.068;12.114;2024-02-16T14:04:02;3.97;;;1.98;;
61471;SDS011;47337;54.068;12.114;2024-02-16T14:06:28;2.33;;;1.60;;
61471;SDS011;47337;54.068;12.114;2024-02-16T14:08:53;3.35;;;1.90;;
61471;SDS011;47337;54.068;12.114;2024-02-16T14:11:19;2.53;;;1.90;;
61471;SDS011;47337;54.068;12.114;2024-02-16T14:13:44;4.05;;;1.67;;
61471;SDS011;47337;54.068;12.114;2024-02-16T14:16:09;3.13;;;1.73;;
61471;SDS011;47337;54.068;12.114;2024-02-16T14:18:35;4.18;;;2.10;;
61471;SDS011;47337;54.068;12.114;2024-02-16T14:21:01;4.20;;;1.83;;
61471;SDS011;47337;54.068;12.114;2024-02-16T14:23:26;2.75;;;1.65;;